Time;durP1;ratioP1;P1;durP2;ratioP2;P2;SDS_P1;SDS_P2;PMS_P1;PMS_P2;Temp;Humidity;BMP_temperature;BMP_pressure;BME280_temperature;BME280_humidity;BME280_pressure;Samples;Min_cycle;Max_cycle;Signal;HPM_P1;HPM_P2
2023/08/24 00:00:41;;;;;;;4.70;3.90;;;31.30;68.70;;;;;;4974049;28;20027;-76
2023/08/24 00:03:08;;;;;;;6.22;4.15;;;31.30;68.80;;;;;;4974686;28;20436;-76
2023/08/24 00:05:37;;;;;;;5.05;3.90;;;31.20;68.70;;;;;;4974844;28;20050;-77
2023/08/24 00:08:04;;;;;;;7.50;4.20;;;31.20;68.50;;;;;;4957366;28;20455;-77
2023/08/24 00:10:30;;;;;;;5.25;4.53;;;31.20;68.30;;;;;;4975924;28;20741;-76
2023/08/24 00:12:56;;;;;;;5.47;4.35;;;31.20;68.20;;;;;;4982762;28;20038;-76
2023/08/24 00:15:22;;;;;;;4.55;4.15;;;31.20;68.20;;;;;;4992254;28;20042;-76
2023/08/24 00:17:48;;;;;;;5.80;3.97;;;31.10;68.20;;;;;;4982038;28;20031;-76
2023/08/24 00:20:14;;;;;;;6.75;4.47;;;31.10;68.20;;;;;;4973163;28;20029;-77
2023/08/24 00:22:39;;;;;;;9.43;4.07;;;31.10;68.20;;;;;;4975488;28;20073;-76
2023/08/24 00:25:09;;;;;;;5.50;4.00;;;31.10;68.10;;;;;;4973789;28;20436;-76
2023/08/24 00:27:35;;;;;;;5.53;4.27;;;31.10;68.00;;;;;;4975740;28;20666;-76
2023/08/24 00:30:04;;;;;;;7.07;4.47;;;31.00;67.90;;;;;;4973374;28;20110;-76
2023/08/24 00:32:34;;;;;;;5.00;3.92;;;31.00;68.10;;;;;;4965043;28;20031;-76
2023/08/24 00:35:00;;;;;;;;;;;31.00;68.10;;;;;;4976211;28;20073;-76
2023/08/24 00:37:25;;;;;;;4.82;4.28;;;31.00;68.10;;;;;;4976471;28;19957;-76
2023/08/24 00:39:51;;;;;;;6.10;4.40;;;31.00;68.10;;;;;;4983380;28;20075;-77
2023/08/24 00:42:26;;;;;;;4.30;3.90;;;30.90;68.00;;;;;;4977111;28;20081;-76
2023/08/24 00:44:52;;;;;;;6.28;4.30;;;30.90;68.20;;;;;;4974347;28;20022;-76
2023/08/24 00:47:27;;;;;;;6.05;3.92;;;30.90;68.60;;;;;;4974195;28;20498;-76
2023/08/24 00:49:53;;;;;;;7.75;4.53;;;30.90;68.40;;;;;;4977597;28;20045;-77
2023/08/24 00:52:19;;;;;;;4.47;3.92;;;30.80;68.50;;;;;;4980366;28;20474;-76
2023/08/24 00:54:45;;;;;;;5.53;4.38;;;30.90;68.60;;;;;;4979328;28;20045;-76
2023/08/24 00:57:11;;;;;;;7.13;4.57;;;30.90;68.60;;;;;;4980628;28;20027;-76
2023/08/24 00:59:37;;;;;;;4.90;3.92;;;30.90;68.70;;;;;;4978256;28;20034;-78
2023/08/24 01:02:02;;;;;;;5.15;4.10;;;30.90;68.60;;;;;;4995036;28;20491;-78
2023/08/24 01:04:28;;;;;;;5.03;4.10;;;30.90;68.50;;;;;;4979917;28;20043;-78
2023/08/24 01:06:54;;;;;;;5.55;4.53;;;30.90;68.70;;;;;;4996864;28;20042;-78
2023/08/24 01:09:20;;;;;;;6.57;4.50;;;30.80;68.80;;;;;;4997022;28;20030;-78
2023/08/24 01:12:01;;;;;;;6.22;4.00;;;30.80;68.80;;;;;;4995991;28;20030;-78
2023/08/24 01:14:41;;;;;;;8.18;4.13;;;30.80;69.00;;;;;;4996869;28;20177;-76
2023/08/24 01:17:18;;;;;;;7.25;4.32;;;30.80;68.90;;;;;;4996947;28;20042;-76
2023/08/24 01:19:45;;;;;;;6.07;4.10;;;30.70;68.90;;;;;;4978280;28;20038;-76
2023/08/24 01:22:13;;;;;;;7.05;4.07;;;30.70;69.10;;;;;;4948782;28;20705;-76
2023/08/24 01:25:03;;;;;;;5.40;3.67;;;30.70;69.10;;;;;;4980800;28;20022;-77
2023/08/24 01:27:31;;;;;;;6.05;4.35;;;30.70;69.20;;;;;;4960955;28;20047;-76
2023/08/24 01:29:59;;;;;;;5.00;3.72;;;30.60;69.30;;;;;;4980232;28;20026;-76
2023/08/24 01:32:24;;;;;;;6.05;4.50;;;30.50;69.30;;;;;;4967568;28;20082;-76
2023/08/24 01:34:50;;;;;;;7.45;4.38;;;30.40;69.60;;;;;;4985249;28;20490;-76
2023/08/24 01:37:16;;;;;;;9.40;5.05;;;30.40;69.70;;;;;;4977281;28;20081;-76
2023/08/24 01:39:50;;;;;;;4.50;4.10;;;30.30;70.00;;;;;;4982856;28;20036;-76
2023/08/24 01:42:21;;;;;;;10.45;4.80;;;30.30;70.00;;;;;;4988600;28;20077;-76
2023/08/24 01:44:54;;;;;;;6.00;3.78;;;30.20;70.20;;;;;;4981210;28;20027;-76
2023/08/24 01:47:21;;;;;;;5.22;3.70;;;30.10;70.40;;;;;;4959867;28;20042;-76
2023/08/24 01:49:47;;;;;;;6.57;4.07;;;30.10;71.00;;;;;;4978213;28;20158;-76
2023/08/24 01:52:14;;;;;;;5.20;4.10;;;30.10;70.70;;;;;;4960835;28;20061;-76
2023/08/24 01:54:40;;;;;;;4.97;3.97;;;30.10;70.60;;;;;;4985917;28;20489;-76
2023/08/24 01:57:06;;;;;;;4.22;3.83;;;30.10;70.70;;;;;;4996432;28;20025;-77
2023/08/24 01:59:32;;;;;;;5.20;4.18;;;30.10;70.70;;;;;;4994787;28;20030;-76
2023/08/24 02:01:58;;;;;;;8.07;4.28;;;30.10;70.80;;;;;;4987145;28;20042;-77
2023/08/24 02:04:23;;;;;;;4.85;4.30;;;30.10;70.90;;;;;;4982745;28;20057;-76
2023/08/24 02:06:49;;;;;;;5.05;4.55;;;30.10;70.90;;;;;;4979749;28;20423;-76
2023/08/24 02:09:14;;;;;;;5.93;4.68;;;30.10;71.00;;;;;;4961874;28;20061;-77
2023/08/24 02:11:40;;;;;;;4.28;3.88;;;30.20;70.90;;;;;;4975365;28;20049;-76
2023/08/24 02:14:06;;;;;;;6.63;4.85;;;30.20;70.80;;;;;;4976258;28;20057;-76
2023/08/24 02:16:32;;;;;;;5.55;4.22;;;30.20;70.90;;;;;;4976572;28;20034;-76
2023/08/24 02:18:58;;;;;;;6.05;4.65;;;30.10;71.00;;;;;;4976408;28;20502;-76
2023/08/24 02:21:23;;;;;;;8.32;4.45;;;30.10;71.20;;;;;;4976139;28;20031;-76
2023/08/24 02:23:49;;;;;;;6.00;4.82;;;30.00;71.30;;;;;;4983820;28;20022;-76
2023/08/24 02:26:15;;;;;;;6.80;4.88;;;30.00;71.80;;;;;;4980955;28;20027;-77
2023/08/24 02:28:40;;;;;;;8.70;5.20;;;30.00;71.90;;;;;;4985733;28;20368;-77
2023/08/24 02:31:06;;;;;;;6.05;4.40;;;29.90;72.10;;;;;;4982688;28;20049;-77
2023/08/24 02:33:32;;;;;;;7.20;4.20;;;29.90;71.90;;;;;;4976129;28;20046;-76
2023/08/24 02:35:59;;;;;;;5.68;4.32;;;29.80;72.00;;;;;;4990594;28;20379;-77
2023/08/24 02:38:25;;;;;;;7.90;4.80;;;29.80;72.40;;;;;;4988704;28;20022;-77
2023/08/24 02:41:01;;;;;;;7.60;4.60;;;29.80;72.60;;;;;;4994358;28;20502;-77
2023/08/24 02:43:27;;;;;;;5.30;4.60;;;29.80;72.80;;;;;;4995259;28;20524;-77
2023/08/24 02:45:53;;;;;;;5.95;4.88;;;29.70;72.80;;;;;;4992303;28;20105;-77
2023/08/24 02:48:19;;;;;;;6.65;4.60;;;29.60;73.40;;;;;;4990889;28;20031;-77
2023/08/24 02:50:47;;;;;;;8.25;5.38;;;29.50;73.20;;;;;;4978248;28;20495;-77
2023/08/24 02:53:13;;;;;;;5.88;4.90;;;29.50;73.30;;;;;;4976080;28;20097;-77
2023/08/24 02:55:39;;;;;;;5.25;4.63;;;29.50;73.40;;;;;;4977106;28;20038;-77
2023/08/24 02:58:05;;;;;;;7.43;5.82;;;29.50;74.20;;;;;;4975771;28;20223;-77
2023/08/24 03:00:31;;;;;;;5.50;4.88;;;29.50;73.80;;;;;;4960873;28;20522;-77
2023/08/24 03:02:56;;;;;;;8.00;6.22;;;29.50;73.80;;;;;;4994009;28;20026;-77
2023/08/24 03:08:08;;;;;;;6.72;5.65;;;29.50;74.30;;;;;;4992388;28;20057;-77
2023/08/24 03:10:37;;;;;;;8.50;5.40;;;29.50;74.00;;;;;;5012762;28;20031;-77
2023/08/24 03:13:03;;;;;;;5.90;5.30;;;29.40;74.10;;;;;;4988342;28;20104;-77
2023/08/24 03:15:30;;;;;;;5.57;4.70;;;29.50;74.40;;;;;;5008613;28;20097;-77
2023/08/24 03:17:56;;;;;;;7.55;5.75;;;29.50;74.30;;;;;;4995073;28;20034;-77
2023/08/24 03:20:22;;;;;;;8.43;5.50;;;29.50;74.50;;;;;;5001390;28;20022;-77
2023/08/24 03:22:49;;;;;;;7.57;5.30;;;29.40;74.40;;;;;;5012990;28;20460;-77
2023/08/24 03:25:15;;;;;;;8.23;5.40;;;29.40;74.50;;;;;;5000893;28;20034;-77
2023/08/24 03:27:41;;;;;;;7.30;5.45;;;29.40;74.70;;;;;;5012580;28;20049;-77
2023/08/24 03:30:07;;;;;;;8.10;5.50;;;29.30;74.70;;;;;;5011429;28;20096;-77
2023/08/24 03:32:33;;;;;;;6.00;5.40;;;29.30;74.60;;;;;;4994293;28;20509;-77
2023/08/24 03:35:03;;;;;;;8.80;5.85;;;29.30;75.00;;;;;;4994516;28;20034;-77
2023/08/24 03:37:29;;;;;;;9.55;5.93;;;29.40;75.00;;;;;;4994718;28;20109;-77
2023/08/24 03:39:54;;;;;;;16.85;6.50;;;29.40;75.10;;;;;;4981063;28;20431;-77
2023/08/24 03:42:20;;;;;;;7.95;6.30;;;29.40;75.20;;;;;;4994331;28;20479;-77
2023/08/24 03:44:46;;;;;;;6.43;5.70;;;29.50;75.30;;;;;;4993845;28;20027;-77
2023/08/24 03:50:12;;;;;;;6.97;5.40;;;29.50;75.00;;;;;;3341951;26;20058;-78
2023/08/24 03:52:39;;;;;;;7.22;5.72;;;29.50;74.80;;;;;;4994302;28;20042;-78
2023/08/24 03:55:06;;;;;;;8.00;5.22;;;29.50;74.70;;;;;;4978128;28;20034;-78
2023/08/24 03:57:32;;;;;;;6.93;5.40;;;29.50;74.60;;;;;;5005934;28;20053;-78
2023/08/24 03:59:58;;;;;;;7.72;5.63;;;29.50;74.60;;;;;;4996364;28;20030;-76
2023/08/24 04:02:23;;;;;;;7.68;5.72;;;29.50;74.70;;;;;;4993295;28;20049;-76
2023/08/24 04:04:50;;;;;;;6.90;5.18;;;29.50;74.50;;;;;;4997185;28;20034;-76
2023/08/24 04:07:16;;;;;;;5.50;4.65;;;29.50;74.30;;;;;;4994401;28;20129;-76
2023/08/24 04:09:42;;;;;;;6.00;5.30;;;29.50;74.20;;;;;;4999911;28;20106;-76
2023/08/24 04:12:08;;;;;;;8.13;5.30;;;29.50;74.00;;;;;;5003332;28;20045;-76
2023/08/24 04:14:33;;;;;;;5.45;4.72;;;29.40;73.90;;;;;;4995621;28;20069;-76
2023/08/24 04:16:59;;;;;;;5.40;4.90;;;29.40;73.90;;;;;;5010811;28;20033;-76
2023/08/24 04:19:25;;;;;;;7.28;5.07;;;29.40;73.90;;;;;;5007277;28;20034;-76
2023/08/24 04:21:51;;;;;;;6.03;5.22;;;29.40;74.10;;;;;;4996131;28;20096;-76
2023/08/24 04:24:17;;;;;;;8.52;4.97;;;29.30;74.20;;;;;;4999931;28;20040;-76
2023/08/24 04:26:42;;;;;;;7.90;4.80;;;29.30;74.30;;;;;;5006248;28;20438;-75
2023/08/24 04:29:08;;;;;;;5.70;4.20;;;29.20;74.30;;;;;;5001134;28;20213;-76
2023/08/24 04:31:35;;;;;;;6.28;5.35;;;29.20;74.50;;;;;;4994898;28;20038;-76
2023/08/24 04:34:04;;;;;;;5.75;5.07;;;29.20;74.60;;;;;;4994737;28;20049;-76
2023/08/24 04:36:30;;;;;;;7.00;5.25;;;29.10;74.70;;;;;;4993375;28;20065;-75
2023/08/24 04:39:11;;;;;;;9.05;5.03;;;29.10;75.20;;;;;;5003131;28;20066;-76
2023/08/24 04:41:37;;;;;;;7.13;5.82;;;29.10;75.70;;;;;;4993821;28;20117;-76
2023/08/24 04:44:03;;;;;;;5.25;4.75;;;29.00;75.80;;;;;;5009180;28;20101;-76
2023/08/24 04:46:28;;;;;;;7.97;5.50;;;29.00;75.80;;;;;;4995168;28;20054;-77
2023/08/24 04:48:54;;;;;;;6.05;5.00;;;29.00;76.40;;;;;;5003867;28;20090;-76
2023/08/24 04:51:19;;;;;;;9.05;5.53;;;28.90;76.20;;;;;;4993578;28;20103;-76
2023/08/24 04:53:45;;;;;;;7.88;5.97;;;28.90;76.20;;;;;;5006964;28;20037;-76
2023/08/24 04:56:11;;;;;;;7.60;6.03;;;28.90;76.50;;;;;;5011449;28;20042;-76
2023/08/24 04:58:36;;;;;;;6.43;5.13;;;28.90;76.40;;;;;;5012243;28;20065;-76
2023/08/24 05:01:02;;;;;;;7.35;5.15;;;28.80;76.30;;;;;;5008719;28;20470;-77
2023/08/24 05:03:28;;;;;;;8.50;5.97;;;28.80;76.20;;;;;;4997316;28;20510;-78
2023/08/24 05:05:53;;;;;;;7.93;4.90;;;28.80;76.20;;;;;;5004403;28;20026;-78
2023/08/24 05:08:19;;;;;;;10.80;5.38;;;28.80;76.00;;;;;;5003631;28;20474;-78
2023/08/24 05:10:45;;;;;;;8.23;5.15;;;28.80;75.80;;;;;;5010898;28;20037;-79
2023/08/24 05:13:11;;;;;;;7.57;4.90;;;28.80;75.70;;;;;;5012988;28;20045;-79
2023/08/24 05:15:36;;;;;;;7.10;5.00;;;28.90;75.80;;;;;;5010611;28;20034;-79
2023/08/24 05:18:02;;;;;;;6.72;5.45;;;28.90;75.70;;;;;;5002215;28;20120;-78
2023/08/24 05:20:28;;;;;;;5.10;4.60;;;28.90;75.50;;;;;;5012599;28;20045;-78
2023/08/24 05:22:55;;;;;;;7.57;5.18;;;28.90;75.10;;;;;;5011518;28;20037;-78
2023/08/24 05:25:21;;;;;;;5.85;5.00;;;28.90;75.00;;;;;;5005905;28;20113;-78
2023/08/24 05:27:47;;;;;;;6.45;5.20;;;28.90;75.00;;;;;;5009021;28;20498;-78
2023/08/24 05:30:13;;;;;;;6.55;5.38;;;29.00;75.10;;;;;;4993203;28;20066;-79
2023/08/24 05:32:38;;;;;;;6.60;5.22;;;29.00;74.70;;;;;;5006032;28;20030;-78
2023/08/24 05:35:05;;;;;;;8.60;5.72;;;29.10;74.80;;;;;;5008159;28;20031;-78
2023/08/24 05:37:31;;;;;;;8.30;4.70;;;29.00;74.50;;;;;;4975912;28;20034;-78
2023/08/24 05:39:57;;;;;;;5.63;4.63;;;29.10;74.50;;;;;;5014849;28;20426;-78
2023/08/24 05:42:22;;;;;;;11.73;5.60;;;29.10;74.40;;;;;;5015786;28;20041;-79
2023/08/24 05:44:50;;;;;;;5.55;4.57;;;29.10;74.30;;;;;;5015987;28;20022;-79
2023/08/24 05:47:15;;;;;;;5.63;4.72;;;29.00;74.20;;;;;;5014280;28;20466;-78
2023/08/24 05:49:41;;;;;;;7.63;5.45;;;29.10;74.20;;;;;;5015014;28;20088;-79
2023/08/24 05:52:07;;;;;;;7.43;4.90;;;29.10;74.30;;;;;;5016032;28;20080;-78
2023/08/24 05:54:33;;;;;;;7.25;4.90;;;29.10;74.20;;;;;;5013432;28;20026;-79
2023/08/24 05:57:01;;;;;;;5.78;5.10;;;29.20;74.30;;;;;;4996826;28;20030;-78
2023/08/24 05:59:28;;;;;;;5.45;4.80;;;29.30;74.20;;;;;;5012479;28;20109;-77
2023/08/24 06:01:54;;;;;;;7.28;5.38;;;29.40;74.40;;;;;;4997706;28;20166;-76
2023/08/24 06:04:20;;;;;;;8.57;5.20;;;29.40;74.20;;;;;;4996336;28;20087;-76
2023/08/24 06:06:45;;;;;;;8.65;4.90;;;29.40;73.80;;;;;;4996430;28;20038;-76
2023/08/24 06:09:11;;;;;;;7.13;5.30;;;29.40;73.50;;;;;;4997085;28;20030;-76
2023/08/24 06:11:37;;;;;;;6.57;4.93;;;29.40;73.50;;;;;;4996357;28;20018;-76
2023/08/24 06:14:03;;;;;;;6.30;4.80;;;29.40;73.60;;;;;;4997429;28;20034;-76
2023/08/24 06:16:29;;;;;;;6.10;4.68;;;29.50;73.80;;;;;;4995934;28;20049;-77
2023/08/24 06:18:55;;;;;;;6.85;4.38;;;29.50;73.60;;;;;;5004878;28;20061;-76
2023/08/24 06:21:21;;;;;;;7.13;4.75;;;29.50;73.20;;;;;;5007002;28;20069;-76
2023/08/24 06:23:47;;;;;;;6.88;4.88;;;29.50;73.90;;;;;;4979104;28;20025;-76
2023/08/24 06:26:13;;;;;;;6.93;4.40;;;29.50;73.30;;;;;;4990299;28;20023;-76
2023/08/24 06:28:39;;;;;;;6.88;4.57;;;29.50;73.50;;;;;;4976456;28;20471;-77
2023/08/24 06:31:07;;;;;;;6.38;4.70;;;29.50;73.30;;;;;;4982426;28;20034;-77
2023/08/24 06:33:36;;;;;;;5.32;4.78;;;29.50;73.40;;;;;;4996478;28;20058;-76
2023/08/24 06:36:05;;;;;;;6.73;4.70;;;29.50;73.40;;;;;;5002240;28;20038;-77
2023/08/24 06:38:30;;;;;;;6.95;5.43;;;29.50;73.40;;;;;;5002621;28;20031;-76
2023/08/24 06:40:58;;;;;;;6.90;4.93;;;29.60;73.50;;;;;;5010147;28;20036;-78
2023/08/24 06:43:23;;;;;;;5.43;4.78;;;29.70;74.00;;;;;;4986473;28;20035;-79
2023/08/24 06:45:49;;;;;;;5.03;4.30;;;29.70;73.40;;;;;;4975410;28;20076;-79
2023/08/24 06:48:15;;;;;;;7.57;5.05;;;29.70;73.50;;;;;;5004887;28;20090;-79
2023/08/24 06:50:41;;;;;;;6.32;4.50;;;29.70;73.50;;;;;;4996349;28;20124;-79
2023/08/24 06:53:06;;;;;;;6.40;4.53;;;29.70;73.50;;;;;;5014524;28;20585;-79
2023/08/24 06:55:33;;;;;;;5.75;4.47;;;29.70;73.50;;;;;;5011514;28;20058;-79
2023/08/24 06:57:59;;;;;;;6.35;4.57;;;29.70;72.80;;;;;;4994503;28;20096;-79
2023/08/24 07:00:25;;;;;;;7.18;4.50;;;29.70;72.60;;;;;;5007797;28;20026;-79
2023/08/24 07:02:51;;;;;;;11.15;6.15;;;29.80;72.50;;;;;;5014375;28;20533;-79
2023/08/24 07:05:20;;;;;;;8.77;5.63;;;29.80;72.40;;;;;;5012752;28;20026;-79
2023/08/24 07:07:47;;;;;;;6.88;4.30;;;29.80;72.30;;;;;;4989400;28;20058;-83
2023/08/24 07:10:13;;;;;;;7.13;4.22;;;29.80;72.50;;;;;;4990453;28;20047;-84
2023/08/24 07:12:41;;;;;;;128.38;108.97;;;29.90;72.50;;;;;;5012087;28;20135;-84
2023/08/24 07:15:08;;;;;;;175.23;143.23;;;30.00;72.90;;;;;;5005194;28;20088;-84
2023/08/24 07:17:33;;;;;;;80.35;69.85;;;30.10;73.00;;;;;;5007699;28;20124;-84
2023/08/24 07:19:59;;;;;;;41.05;32.17;;;30.20;72.80;;;;;;5000866;28;20101;-83
2023/08/24 07:22:28;;;;;;;42.20;27.83;;;30.30;72.60;;;;;;5013432;28;20053;-83
2023/08/24 07:24:54;;;;;;;43.28;28.40;;;30.40;72.40;;;;;;5008053;28;20089;-82
2023/08/24 07:27:21;;;;;;;25.52;18.45;;;30.50;72.00;;;;;;4994337;28;20061;-83
2023/08/24 07:29:46;;;;;;;29.05;18.30;;;30.60;71.40;;;;;;4977000;28;20030;-83
2023/08/24 07:32:12;;;;;;;27.00;18.10;;;30.60;69.80;;;;;;4992604;28;20478;-82
2023/08/24 07:34:38;;;;;;;25.73;16.02;;;30.60;70.30;;;;;;4991955;28;20033;-82
2023/08/24 07:37:04;;;;;;;19.67;14.60;;;30.70;69.90;;;;;;4991017;28;20038;-82
2023/08/24 07:39:30;;;;;;;17.80;12.43;;;30.70;69.70;;;;;;4992542;28;20101;-82
2023/08/24 07:41:55;;;;;;;15.63;11.45;;;30.80;70.00;;;;;;4992396;28;20026;-82
2023/08/24 07:44:21;;;;;;;9.73;7.25;;;30.90;70.00;;;;;;4992364;28;20386;-82
2023/08/24 07:46:50;;;;;;;9.38;5.75;;;30.90;70.40;;;;;;4992698;28;20023;-82
2023/08/24 07:49:15;;;;;;;16.20;11.25;;;31.10;70.70;;;;;;4994096;28;20042;-82
2023/08/24 07:51:42;;;;;;;13.73;9.98;;;31.10;70.60;;;;;;4993754;28;20041;-82
2023/08/24 07:54:08;;;;;;;11.70;9.23;;;31.30;70.60;;;;;;4993495;28;20026;-82
2023/08/24 07:56:35;;;;;;;19.38;14.93;;;31.40;69.90;;;;;;4993806;28;20027;-82
2023/08/24 07:59:00;;;;;;;17.95;11.68;;;31.40;70.00;;;;;;4993464;28;20030;-83
2023/08/24 08:01:26;;;;;;;16.88;13.57;;;31.50;68.10;;;;;;4991908;28;20023;-86
2023/08/24 08:03:52;;;;;;;13.18;9.73;;;31.50;68.60;;;;;;4994018;28;20434;-85
2023/08/24 08:06:18;;;;;;;27.88;22.00;;;31.50;68.40;;;;;;4993859;28;20385;-86
2023/08/24 08:08:45;;;;;;;19.05;16.00;;;31.60;67.50;;;;;;4993970;28;20064;-84
2023/08/24 08:11:11;;;;;;;9.55;6.47;;;31.70;67.70;;;;;;4994269;28;20036;-86
2023/08/24 08:13:36;;;;;;;18.10;10.63;;;31.70;68.00;;;;;;4993622;28;20030;-87
2023/08/24 08:16:04;;;;;;;12.20;8.40;;;31.80;68.50;;;;;;4993288;28;20030;-87
2023/08/24 08:18:31;;;;;;;9.68;8.10;;;31.90;68.90;;;;;;4994006;28;20089;-86
2023/08/24 08:20:57;;;;;;;13.90;11.80;;;32.00;68.40;;;;;;4993730;28;20101;-86
2023/08/24 08:23:22;;;;;;;13.32;9.98;;;32.10;67.60;;;;;;4993443;28;20050;-86
2023/08/24 08:25:48;;;;;;;9.65;7.13;;;32.10;63.70;;;;;;4994144;28;20029;-87
2023/08/24 08:28:14;;;;;;;14.68;11.25;;;32.10;65.70;;;;;;4971446;28;20030;-87
2023/08/24 08:30:39;;;;;;;17.83;13.95;;;32.20;65.00;;;;;;4973643;28;20031;-87
2023/08/24 08:33:05;;;;;;;21.55;17.33;;;32.20;64.80;;;;;;4972994;28;20030;-87
2023/08/24 08:35:31;;;;;;;14.70;11.85;;;32.30;64.70;;;;;;4971912;28;20038;-87
2023/08/24 08:37:56;;;;;;;10.73;9.40;;;32.30;65.30;;;;;;4970204;28;20402;-88
2023/08/24 08:40:29;;;;;;;14.70;9.55;;;32.40;65.70;;;;;;4971055;28;20034;-87
2023/08/24 08:42:58;;;;;;;13.18;8.48;;;32.50;65.90;;;;;;4971124;28;20430;-87
2023/08/24 08:45:28;;;;;;;10.07;8.85;;;32.60;64.30;;;;;;4979513;28;20053;-87
2023/08/24 08:48:01;;;;;;;;;;;32.60;65.20;;;;;;5010464;28;20030;-86
2023/08/24 08:50:27;;;;;;;23.58;15.00;;;32.70;65.30;;;;;;5009741;28;19948;-87
2023/08/24 08:52:53;;;;;;;20.30;15.50;;;32.80;64.40;;;;;;5009657;28;20096;-87
2023/08/24 08:55:19;;;;;;;19.25;14.23;;;32.90;64.60;;;;;;5010283;28;20579;-86
2023/08/24 08:57:48;;;;;;;12.38;8.48;;;32.90;65.20;;;;;;5008225;28;20517;-87
2023/08/24 09:00:16;;;;;;;12.45;8.98;;;33.10;65.10;;;;;;5010043;28;20529;-86
2023/08/24 09:02:47;;;;;;;22.35;14.88;;;33.10;63.90;;;;;;5009823;28;20032;-87
2023/08/24 09:05:13;;;;;;;15.55;10.13;;;33.30;63.60;;;;;;5010011;28;20030;-86
2023/08/24 09:07:41;;;;;;;13.38;10.00;;;33.30;64.10;;;;;;5010328;28;20026;-87
2023/08/24 09:10:08;;;;;;;14.67;8.20;;;33.40;63.30;;;;;;5010428;28;20041;-86
2023/08/24 09:12:34;;;;;;;16.85;11.48;;;33.50;64.10;;;;;;5010068;28;20093;-86
2023/08/24 09:15:03;;;;;;;20.83;13.07;;;33.60;63.00;;;;;;5013416;28;20490;-85
2023/08/24 09:17:29;;;;;;;12.20;9.68;;;33.70;63.90;;;;;;5011253;28;20359;-86
2023/08/24 09:19:58;;;;;;;7.90;6.00;;;33.80;63.70;;;;;;5014814;28;20076;-86
2023/08/24 09:22:24;;;;;;;11.30;8.57;;;33.90;64.10;;;;;;5015987;28;20030;-87
2023/08/24 09:24:54;;;;;;;11.18;8.75;;;34.00;63.20;;;;;;5014830;28;20038;-87
2023/08/24 09:27:21;;;;;;;10.75;7.90;;;34.10;63.50;;;;;;5013107;28;20385;-86
2023/08/24 09:29:50;;;;;;;10.10;6.90;;;34.10;61.40;;;;;;5015997;28;20026;-88
2023/08/24 09:32:22;;;;;;;10.93;7.10;;;34.00;60.20;;;;;;5016143;28;20017;-87
2023/08/24 09:34:48;;;;;;;9.30;7.30;;;34.00;61.10;;;;;;4999685;28;20060;-86
2023/08/24 09:37:17;;;;;;;8.30;6.82;;;34.00;61.50;;;;;;5013614;28;20509;-86
2023/08/24 09:39:44;;;;;;;11.50;8.93;;;34.00;61.20;;;;;;5004304;28;20029;-85
2023/08/24 09:42:09;;;;;;;11.82;8.70;;;34.10;60.30;;;;;;4993106;28;20018;-85
2023/08/24 09:44:36;;;;;;;14.25;8.88;;;34.10;60.80;;;;;;4993331;28;20067;-86
2023/08/24 09:47:02;;;;;;;10.30;7.90;;;34.20;61.80;;;;;;4993605;28;20073;-86
2023/08/24 09:49:28;;;;;;;10.27;7.20;;;34.30;61.80;;;;;;4993570;28;20042;-85
2023/08/24 09:51:57;;;;;;;10.13;6.95;;;34.50;62.50;;;;;;4997125;28;20034;-86
2023/08/24 09:54:27;;;;;;;10.70;8.00;;;34.70;62.60;;;;;;4993608;28;20184;-86
2023/08/24 09:56:55;;;;;;;24.55;15.93;;;34.90;62.70;;;;;;4993526;28;20030;-86
2023/08/24 09:59:24;;;;;;;10.55;8.50;;;35.00;62.40;;;;;;4993292;28;20088;-86
2023/08/24 10:01:51;;;;;;;9.43;5.97;;;35.20;62.40;;;;;;4993264;28;20031;-85
2023/08/24 10:04:29;;;;;;;5.88;5.03;;;35.30;62.10;;;;;;4993290;28;20018;-86
2023/08/24 10:07:08;;;;;;;8.95;6.13;;;35.50;61.70;;;;;;4993069;28;20022;-86
2023/08/24 10:09:56;;;;;;;9.27;6.60;;;35.60;61.80;;;;;;4993233;28;20105;-86
2023/08/24 10:12:27;;;;;;;11.27;7.35;;;35.70;61.00;;;;;;4992594;28;20097;-86
2023/08/24 10:15:03;;;;;;;9.95;6.72;;;35.90;61.30;;;;;;4991272;28;20081;-85
2023/08/24 10:17:32;;;;;;;10.70;8.25;;;36.00;61.20;;;;;;4992801;28;20072;-86
2023/08/24 10:20:04;;;;;;;8.43;6.60;;;36.20;60.80;;;;;;4992762;28;20033;-85
2023/08/24 10:22:31;;;;;;;13.30;9.52;;;36.20;61.00;;;;;;4992420;28;20019;-85
2023/08/24 10:24:57;;;;;;;13.07;10.95;;;36.30;60.40;;;;;;4991928;28;20022;-85
2023/08/24 10:27:26;;;;;;;10.85;9.65;;;36.40;60.40;;;;;;4993001;28;20407;-86
2023/08/24 10:29:52;;;;;;;13.18;10.57;;;36.50;60.50;;;;;;4993139;28;20034;-86
2023/08/24 10:32:21;;;;;;;13.45;9.85;;;36.60;60.40;;;;;;4992854;28;20056;-86
2023/08/24 10:34:47;;;;;;;12.77;9.77;;;36.70;60.00;;;;;;4993608;28;20105;-86
2023/08/24 10:37:12;;;;;;;10.45;8.68;;;36.80;60.20;;;;;;4994014;28;20023;-86
2023/08/24 10:39:47;;;;;;;13.70;12.23;;;36.80;59.40;;;;;;4994143;28;20018;-84
2023/08/24 10:42:14;;;;;;;16.25;11.57;;;36.90;59.20;;;;;;4992809;28;20038;-86
2023/08/24 10:44:43;;;;;;;13.00;9.93;;;37.00;58.90;;;;;;4994087;28;20034;-86
2023/08/24 10:47:28;;;;;;;15.38;13.40;;;37.10;58.80;;;;;;4994424;28;20086;-85
2023/08/24 10:49:56;;;;;;;9.73;7.82;;;37.10;58.70;;;;;;4990941;28;20042;-86
2023/08/24 10:52:36;;;;;;;14.48;8.10;;;37.30;58.30;;;;;;4994154;28;20022;-86
2023/08/24 10:55:02;;;;;;;;;;;37.50;58.20;;;;;;4994779;28;20015;-86
2023/08/24 10:57:36;;;;;;;16.00;12.40;;;37.60;57.70;;;;;;4993990;28;19912;-81
2023/08/24 11:00:08;;;;;;;18.17;13.45;;;37.70;57.00;;;;;;4993827;28;20066;-81
2023/08/24 11:02:48;;;;;;;18.83;13.52;;;37.80;57.40;;;;;;4993859;28;20072;-81
2023/08/24 11:05:24;;;;;;;16.30;14.40;;;37.90;57.10;;;;;;4994032;28;20018;-81
2023/08/24 11:07:55;;;;;;;16.17;12.15;;;38.10;57.50;;;;;;4990908;28;20506;-81
2023/08/24 11:10:25;;;;;;;14.65;9.98;;;38.20;56.80;;;;;;4993994;28;20113;-81
2023/08/24 11:13:04;;;;;;;12.50;9.18;;;38.40;56.50;;;;;;4993086;28;20026;-81
2023/08/24 11:15:31;;;;;;;9.80;7.05;;;38.50;56.20;;;;;;4976288;28;20412;-81
2023/08/24 11:18:12;;;;;;;6.63;5.95;;;38.70;56.00;;;;;;4994145;28;20026;-81
2023/08/24 11:20:44;;;;;;;14.73;9.70;;;38.90;55.40;;;;;;4994285;28;20029;-81
2023/08/24 11:23:10;;;;;;;13.63;10.30;;;39.00;55.90;;;;;;4999592;28;20060;-81
2023/08/24 11:25:36;;;;;;;10.77;9.68;;;39.20;55.30;;;;;;5000548;28;20019;-81
2023/08/24 11:28:04;;;;;;;19.42;14.57;;;39.30;55.10;;;;;;5004181;28;20030;-81
2023/08/24 11:30:31;;;;;;;13.10;9.18;;;39.40;54.90;;;;;;4991772;28;20023;-81
2023/08/24 11:32:57;;;;;;;16.70;11.15;;;39.60;54.20;;;;;;4991051;28;20041;-81
2023/08/24 11:35:23;;;;;;;11.73;9.93;;;39.80;54.30;;;;;;4996476;28;20108;-81
2023/08/24 11:37:56;;;;;;;12.52;8.75;;;39.90;54.00;;;;;;4977799;28;20034;-81
2023/08/24 11:40:28;;;;;;;9.43;6.28;;;40.10;53.90;;;;;;4974480;28;20026;-81
2023/08/24 11:42:58;;;;;;;11.88;9.35;;;40.40;53.70;;;;;;4992623;28;20053;-80
2023/08/24 11:45:28;;;;;;;11.05;8.52;;;40.60;53.30;;;;;;5005170;28;20112;-81
2023/08/24 11:47:54;;;;;;;12.52;10.82;;;40.80;53.00;;;;;;5000546;28;20240;-81
2023/08/24 11:50:20;;;;;;;12.50;10.18;;;40.90;52.40;;;;;;4995181;28;20046;-81
2023/08/24 11:52:46;;;;;;;14.68;10.23;;;41.00;52.20;;;;;;4995988;28;20026;-81
2023/08/24 11:55:12;;;;;;;23.05;14.90;;;41.20;51.00;;;;;;4993675;28;20386;-86
2023/08/24 11:57:38;;;;;;;19.83;14.85;;;41.30;49.90;;;;;;5000420;28;20030;-86
2023/08/24 12:00:06;;;;;;;36.13;27.25;;;41.40;51.20;;;;;;4993305;28;20030;-86
2023/08/24 12:02:32;;;;;;;19.02;13.70;;;41.50;51.10;;;;;;4993855;28;20378;-86
2023/08/24 12:04:59;;;;;;;25.00;19.05;;;41.60;50.80;;;;;;4993901;28;20105;-86
2023/08/24 12:07:26;;;;;;;23.50;17.85;;;41.80;50.80;;;;;;4994864;28;20049;-87
2023/08/24 12:09:54;;;;;;;12.85;10.23;;;41.90;50.80;;;;;;4995073;28;20102;-87
2023/08/24 12:12:23;;;;;;;15.93;8.10;;;41.90;50.60;;;;;;4992321;28;20026;-86
2023/08/24 12:14:49;;;;;;;10.80;9.70;;;42.10;50.40;;;;;;4974702;28;20080;-87
2023/08/24 12:17:16;;;;;;;17.42;14.70;;;42.20;50.10;;;;;;4993377;28;20054;-87
2023/08/24 12:19:55;;;;;;;10.23;8.13;;;42.40;50.30;;;;;;4993371;28;20489;-85
2023/08/24 12:22:21;;;;;;;11.25;7.50;;;42.50;50.00;;;;;;4993825;28;20133;-86
2023/08/24 12:24:47;;;;;;;13.10;10.98;;;42.60;48.50;;;;;;4993896;28;20022;-86
2023/08/24 12:27:19;;;;;;;14.38;11.30;;;42.50;49.40;;;;;;4975673;28;20045;-86
2023/08/24 12:29:48;;;;;;;11.02;9.65;;;42.40;48.80;;;;;;4992712;28;20026;-86
2023/08/24 12:32:20;;;;;;;23.30;12.80;;;42.30;49.00;;;;;;4991366;28;20053;-86
2023/08/24 12:34:46;;;;;;;13.13;10.13;;;42.30;49.30;;;;;;4991662;28;20040;-86
2023/08/24 12:37:12;;;;;;;21.77;17.67;;;42.30;49.60;;;;;;4993029;28;20089;-87
2023/08/24 12:39:39;;;;;;;21.48;17.35;;;42.30;49.10;;;;;;4993367;28;20416;-86
2023/08/24 12:42:06;;;;;;;10.90;8.88;;;42.20;49.60;;;;;;4994005;28;20068;-87
2023/08/24 12:44:32;;;;;;;12.20;10.27;;;42.20;49.20;;;;;;4978130;28;20030;-82
2023/08/24 12:46:59;;;;;;;21.40;14.13;;;42.30;48.60;;;;;;4993895;28;20391;-81